sensor_id;sensor_type;location;lat;lon;timestamp;temperature;humidity
53208;DHT22;39093;52.788;6.940;2023-10-31T00:01:50;11.90;99.90
53208;DHT22;39093;52.788;6.940;2023-10-31T00:04:17;11.80;99.90
53208;DHT22;39093;52.788;6.940;2023-10-31T00:06:44;11.90;99.90
53208;DHT22;39093;52.788;6.940;2023-10-31T00:09:11;11.90;99.90
53208;DHT22;39093;52.788;6.940;2023-10-31T00:11:41;11.90;99.90
53208;DHT22;39093;52.788;6.940;2023-10-31T00:14:08;11.90;99.90
53208;DHT22;39093;52.788;6.940;2023-10-31T00:16:55;11.90;99.90
53208;DHT22;39093;52.788;6.940;2023-10-31T00:19:22;11.90;99.90
53208;DHT22;39093;52.788;6.940;2023-10-31T00:21:49;11.90;99.90
53208;DHT22;39093;52.788;6.940;2023-10-31T00:24:16;11.90;99.90
53208;DHT22;39093;52.788;6.940;2023-10-31T00:26:43;11.90;99.90
53208;DHT22;39093;52.788;6.940;2023-10-31T00:29:10;11.90;99.90
53208;DHT22;39093;52.788;6.940;2023-10-31T00:31:37;11.90;99.90
53208;DHT22;39093;52.788;6.940;2023-10-31T00:34:08;11.90;99.90
53208;DHT22;39093;52.788;6.940;2023-10-31T00:36:35;11.90;99.90
53208;DHT22;39093;52.788;6.940;2023-10-31T00:39:02;11.90;99.90
53208;DHT22;39093;52.788;6.940;2023-10-31T00:41:29;11.90;99.90
53208;DHT22;39093;52.788;6.940;2023-10-31T00:43:56;11.90;99.90
53208;DHT22;39093;52.788;6.940;2023-10-31T00:46:23;11.90;99.90
53208;DHT22;39093;52.788;6.940;2023-10-31T00:48:50;11.90;99.90
53208;DHT22;39093;52.788;6.940;2023-10-31T00:51:17;11.90;99.90
53208;DHT22;39093;52.788;6.940;2023-10-31T00:53:44;12.00;99.90
53208;DHT22;39093;52.788;6.940;2023-10-31T00:56:10;12.00;99.90
53208;DHT22;39093;52.788;6.940;2023-10-31T00:58:37;11.90;99.90
53208;DHT22;39093;52.788;6.940;2023-10-31T01:01:04;11.90;99.90
53208;DHT22;39093;52.788;6.940;2023-10-31T01:03:31;11.90;99.90
53208;DHT22;39093;52.788;6.940;2023-10-31T01:05:58;11.90;99.90
53208;DHT22;39093;52.788;6.940;2023-10-31T01:08:26;11.90;99.90
53208;DHT22;39093;52.788;6.940;2023-10-31T01:10:53;11.90;99.90
53208;DHT22;39093;52.788;6.940;2023-10-31T01:13:20;11.90;99.90
53208;DHT22;39093;52.788;6.940;2023-10-31T01:15:47;11.90;99.90
53208;DHT22;39093;52.788;6.940;2023-10-31T01:18:14;11.90;99.90
53208;DHT22;39093;52.788;6.940;2023-10-31T01:20:40;11.90;99.90
53208;DHT22;39093;52.788;6.940;2023-10-31T01:23:07;11.90;99.90
53208;DHT22;39093;52.788;6.940;2023-10-31T01:25:34;11.90;99.90
53208;DHT22;39093;52.788;6.940;2023-10-31T01:28:01;11.90;99.90
53208;DHT22;39093;52.788;6.940;2023-10-31T01:30:28;11.90;99.90
53208;DHT22;39093;52.788;6.940;2023-10-31T01:32:55;11.90;99.90
53208;DHT22;39093;52.788;6.940;2023-10-31T01:35:22;11.90;99.90
53208;DHT22;39093;52.788;6.940;2023-10-31T01:37:49;11.90;99.90
53208;DHT22;39093;52.788;6.940;2023-10-31T01:40:16;11.90;99.90
53208;DHT22;39093;52.788;6.940;2023-10-31T01:42:43;11.90;99.90
53208;DHT22;39093;52.788;6.940;2023-10-31T01:45:11;11.90;99.90
53208;DHT22;39093;52.788;6.940;2023-10-31T01:47:38;11.90;99.90
53208;DHT22;39093;52.788;6.940;2023-10-31T01:50:06;11.90;99.90
53208;DHT22;39093;52.788;6.940;2023-10-31T01:52:33;11.90;99.90
53208;DHT22;39093;52.788;6.940;2023-10-31T01:55:03;11.90;99.90
53208;DHT22;39093;52.788;6.940;2023-10-31T01:57:31;11.90;99.90
53208;DHT22;39093;52.788;6.940;2023-10-31T01:59:58;12.00;99.90
53208;DHT22;39093;52.788;6.940;2023-10-31T02:02:27;11.90;99.90
53208;DHT22;39093;52.788;6.940;2023-10-31T02:04:56;12.00;99.90
53208;DHT22;39093;52.788;6.940;2023-10-31T02:07:23;12.00;99.90
53208;DHT22;39093;52.788;6.940;2023-10-31T02:09:50;11.90;99.90
53208;DHT22;39093;52.788;6.940;2023-10-31T02:12:34;11.80;99.90
53208;DHT22;39093;52.788;6.940;2023-10-31T02:15:01;11.60;99.90
53208;DHT22;39093;52.788;6.940;2023-10-31T02:17:29;11.40;99.90
53208;DHT22;39093;52.788;6.940;2023-10-31T02:19:56;11.20;99.90
53208;DHT22;39093;52.788;6.940;2023-10-31T02:22:23;11.10;99.90
53208;DHT22;39093;52.788;6.940;2023-10-31T02:24:50;11.20;99.90
53208;DHT22;39093;52.788;6.940;2023-10-31T02:27:17;11.00;99.90
53208;DHT22;39093;52.788;6.940;2023-10-31T02:29:44;10.90;99.90
53208;DHT22;39093;52.788;6.940;2023-10-31T02:32:11;10.80;99.90
53208;DHT22;39093;52.788;6.940;2023-10-31T02:34:38;10.80;99.90
53208;DHT22;39093;52.788;6.940;2023-10-31T02:37:05;10.70;99.90
53208;DHT22;39093;52.788;6.940;2023-10-31T02:39:33;10.70;99.90
53208;DHT22;39093;52.788;6.940;2023-10-31T02:42:00;10.60;99.90
53208;DHT22;39093;52.788;6.940;2023-10-31T02:44:27;10.60;99.90
53208;DHT22;39093;52.788;6.940;2023-10-31T02:46:54;10.50;99.90
53208;DHT22;39093;52.788;6.940;2023-10-31T02:49:22;10.50;99.90
53208;DHT22;39093;52.788;6.940;2023-10-31T02:51:49;10.50;99.90
53208;DHT22;39093;52.788;6.940;2023-10-31T02:54:16;10.50;99.90
53208;DHT22;39093;52.788;6.940;2023-10-31T02:56:43;10.60;99.90
53208;DHT22;39093;52.788;6.940;2023-10-31T02:59:10;10.50;99.90
53208;DHT22;39093;52.788;6.940;2023-10-31T03:01:37;10.40;99.90
53208;DHT22;39093;52.788;6.940;2023-10-31T03:04:04;10.40;99.90
53208;DHT22;39093;52.788;6.940;2023-10-31T03:06:31;10.40;99.90
53208;DHT22;39093;52.788;6.940;2023-10-31T03:08:58;10.40;99.90
53208;DHT22;39093;52.788;6.940;2023-10-31T03:11:26;10.40;99.90
53208;DHT22;39093;52.788;6.940;2023-10-31T03:13:53;10.30;99.90
53208;DHT22;39093;52.788;6.940;2023-10-31T03:16:21;10.30;99.90
53208;DHT22;39093;52.788;6.940;2023-10-31T03:18:48;10.30;99.90
53208;DHT22;39093;52.788;6.940;2023-10-31T03:21:15;10.20;99.90
53208;DHT22;39093;52.788;6.940;2023-10-31T03:23:47;10.20;99.90
53208;DHT22;39093;52.788;6.940;2023-10-31T03:26:16;10.20;99.90
53208;DHT22;39093;52.788;6.940;2023-10-31T03:28:43;10.20;99.90
53208;DHT22;39093;52.788;6.940;2023-10-31T03:31:12;10.30;99.90
53208;DHT22;39093;52.788;6.940;2023-10-31T03:33:39;10.20;99.90
53208;DHT22;39093;52.788;6.940;2023-10-31T03:36:07;10.30;99.90
53208;DHT22;39093;52.788;6.940;2023-10-31T03:38:35;10.20;99.90
53208;DHT22;39093;52.788;6.940;2023-10-31T03:41:03;10.20;99.90
53208;DHT22;39093;52.788;6.940;2023-10-31T03:43:30;10.30;99.90
53208;DHT22;39093;52.788;6.940;2023-10-31T03:45:57;10.20;99.90
53208;DHT22;39093;52.788;6.940;2023-10-31T03:48:24;10.20;99.90
53208;DHT22;39093;52.788;6.940;2023-10-31T03:50:51;10.20;99.90
53208;DHT22;39093;52.788;6.940;2023-10-31T03:53:18;10.20;99.90
53208;DHT22;39093;52.788;6.940;2023-10-31T03:55:45;10.20;99.90
53208;DHT22;39093;52.788;6.940;2023-10-31T03:58:12;10.30;99.90
53208;DHT22;39093;52.788;6.940;2023-10-31T04:00:40;10.30;99.90
53208;DHT22;39093;52.788;6.940;2023-10-31T04:03:08;10.30;99.90
53208;DHT22;39093;52.788;6.940;2023-10-31T04:05:35;10.20;99.90
53208;DHT22;39093;52.788;6.940;2023-10-31T04:08:02;10.20;99.90
53208;DHT22;39093;52.788;6.940;2023-10-31T04:10:29;10.20;99.90
53208;DHT22;39093;52.788;6.940;2023-10-31T04:12:56;10.30;99.90
53208;DHT22;39093;52.788;6.940;2023-10-31T04:15:22;10.20;99.90
53208;DHT22;39093;52.788;6.940;2023-10-31T04:17:49;10.20;99.90
53208;DHT22;39093;52.788;6.940;2023-10-31T04:20:16;10.10;99.90
53208;DHT22;39093;52.788;6.940;2023-10-31T04:22:43;10.20;99.90
53208;DHT22;39093;52.788;6.940;2023-10-31T04:25:10;10.20;99.90
53208;DHT22;39093;52.788;6.940;2023-10-31T04:27:37;10.20;99.90
53208;DHT22;39093;52.788;6.940;2023-10-31T04:30:05;10.20;99.90
53208;DHT22;39093;52.788;6.940;2023-10-31T04:32:32;10.20;99.90
53208;DHT22;39093;52.788;6.940;2023-10-31T04:34:59;10.20;99.90
53208;DHT22;39093;52.788;6.940;2023-10-31T04:37:26;10.20;99.90
53208;DHT22;39093;52.788;6.940;2023-10-31T04:39:53;10.20;99.90
53208;DHT22;39093;52.788;6.940;2023-10-31T04:42:20;10.20;99.90
53208;DHT22;39093;52.788;6.940;2023-10-31T04:44:47;10.30;99.90
53208;DHT22;39093;52.788;6.940;2023-10-31T04:47:14;10.30;99.90
53208;DHT22;39093;52.788;6.940;2023-10-31T04:49:41;10.30;99.90
53208;DHT22;39093;52.788;6.940;2023-10-31T04:52:08;10.20;99.90
53208;DHT22;39093;52.788;6.940;2023-10-31T04:54:35;10.20;99.90
53208;DHT22;39093;52.788;6.940;2023-10-31T04:57:02;10.20;99.90
53208;DHT22;39093;52.788;6.940;2023-10-31T04:59:30;10.20;99.90
53208;DHT22;39093;52.788;6.940;2023-10-31T05:01:58;10.20;99.90
53208;DHT22;39093;52.788;6.940;2023-10-31T05:04:25;10.20;99.90
53208;DHT22;39093;52.788;6.940;2023-10-31T05:06:52;10.20;99.90
53208;DHT22;39093;52.788;6.940;2023-10-31T05:09:19;10.20;99.90
53208;DHT22;39093;52.788;6.940;2023-10-31T05:11:47;10.50;99.90
53208;DHT22;39093;52.788;6.940;2023-10-31T05:14:14;10.30;99.90
53208;DHT22;39093;52.788;6.940;2023-10-31T05:16:44;10.20;99.90
53208;DHT22;39093;52.788;6.940;2023-10-31T05:19:11;10.20;99.90
53208;DHT22;39093;52.788;6.940;2023-10-31T05:21:38;10.20;99.90
53208;DHT22;39093;52.788;6.940;2023-10-31T05:24:06;10.20;99.90
53208;DHT22;39093;52.788;6.940;2023-10-31T05:26:33;10.20;99.90
53208;DHT22;39093;52.788;6.940;2023-10-31T05:29:00;10.20;99.90
53208;DHT22;39093;52.788;6.940;2023-10-31T05:31:27;10.30;99.90
53208;DHT22;39093;52.788;6.940;2023-10-31T05:33:54;10.20;99.90
53208;DHT22;39093;52.788;6.940;2023-10-31T05:36:22;10.20;99.90
53208;DHT22;39093;52.788;6.940;2023-10-31T05:38:50;10.20;99.90
53208;DHT22;39093;52.788;6.940;2023-10-31T05:41:17;10.20;99.90
53208;DHT22;39093;52.788;6.940;2023-10-31T05:43:44;10.20;99.90
53208;DHT22;39093;52.788;6.940;2023-10-31T05:46:11;10.10;99.90
53208;DHT22;39093;52.788;6.940;2023-10-31T05:48:46;10.20;99.90
53208;DHT22;39093;52.788;6.940;2023-10-31T05:51:16;10.10;99.90
53208;DHT22;39093;52.788;6.940;2023-10-31T05:53:47;10.10;99.90
53208;DHT22;39093;52.788;6.940;2023-10-31T05:56:15;10.10;99.90
53208;DHT22;39093;52.788;6.940;2023-10-31T05:58:43;10.10;99.90
53208;DHT22;39093;52.788;6.940;2023-10-31T06:01:10;10.10;99.90
53208;DHT22;39093;52.788;6.940;2023-10-31T06:03:37;10.20;99.90
53208;DHT22;39093;52.788;6.940;2023-10-31T06:06:05;10.10;99.90
53208;DHT22;39093;52.788;6.940;2023-10-31T06:08:32;10.10;99.90
53208;DHT22;39093;52.788;6.940;2023-10-31T06:10:59;10.20;99.90
53208;DHT22;39093;52.788;6.940;2023-10-31T06:13:27;10.10;99.90
53208;DHT22;39093;52.788;6.940;2023-10-31T06:15:55;10.20;99.90
53208;DHT22;39093;52.788;6.940;2023-10-31T06:18:27;10.10;99.90
53208;DHT22;39093;52.788;6.940;2023-10-31T06:20:55;10.10;99.90
53208;DHT22;39093;52.788;6.940;2023-10-31T06:23:22;10.10;99.90
53208;DHT22;39093;52.788;6.940;2023-10-31T06:25:49;10.10;99.90
53208;DHT22;39093;52.788;6.940;2023-10-31T06:28:16;10.10;99.90
53208;DHT22;39093;52.788;6.940;2023-10-31T06:30:43;10.10;99.90
53208;DHT22;39093;52.788;6.940;2023-10-31T06:33:10;10.10;99.90
53208;DHT22;39093;52.788;6.940;2023-10-31T06:35:39;10.10;99.90
53208;DHT22;39093;52.788;6.940;2023-10-31T06:38:06;10.10;99.90
53208;DHT22;39093;52.788;6.940;2023-10-31T06:40:33;10.00;99.90
53208;DHT22;39093;52.788;6.940;2023-10-31T06:43:01;10.10;99.90
53208;DHT22;39093;52.788;6.940;2023-10-31T06:45:28;10.10;99.90
53208;DHT22;39093;52.788;6.940;2023-10-31T06:47:55;10.00;99.90
53208;DHT22;39093;52.788;6.940;2023-10-31T06:50:22;10.00;99.90
53208;DHT22;39093;52.788;6.940;2023-10-31T06:52:49;10.00;99.90
53208;DHT22;39093;52.788;6.940;2023-10-31T06:55:16;10.10;99.90
53208;DHT22;39093;52.788;6.940;2023-10-31T06:57:43;10.10;99.90
53208;DHT22;39093;52.788;6.940;2023-10-31T07:00:14;10.10;99.90
53208;DHT22;39093;52.788;6.940;2023-10-31T07:02:41;10.10;99.90
53208;DHT22;39093;52.788;6.940;2023-10-31T07:05:08;10.10;99.90
53208;DHT22;39093;52.788;6.940;2023-10-31T07:07:36;10.10;99.90
53208;DHT22;39093;52.788;6.940;2023-10-31T07:10:03;10.10;99.90
53208;DHT22;39093;52.788;6.940;2023-10-31T07:12:30;10.10;99.90
53208;DHT22;39093;52.788;6.940;2023-10-31T07:14:57;10.10;99.90
53208;DHT22;39093;52.788;6.940;2023-10-31T07:17:27;10.10;99.90
53208;DHT22;39093;52.788;6.940;2023-10-31T07:19:54;10.10;99.90
53208;DHT22;39093;52.788;6.940;2023-10-31T07:22:21;10.10;99.90
53208;DHT22;39093;52.788;6.940;2023-10-31T07:24:49;10.20;99.90
53208;DHT22;39093;52.788;6.940;2023-10-31T07:27:16;10.10;99.90
53208;DHT22;39093;52.788;6.940;2023-10-31T07:29:43;10.20;99.90
53208;DHT22;39093;52.788;6.940;2023-10-31T07:32:11;10.10;99.90
53208;DHT22;39093;52.788;6.940;2023-10-31T07:34:41;10.10;99.90
53208;DHT22;39093;52.788;6.940;2023-10-31T07:37:11;10.20;99.90
53208;DHT22;39093;52.788;6.940;2023-10-31T07:39:38;10.20;99.90
53208;DHT22;39093;52.788;6.940;2023-10-31T07:42:05;10.20;99.90
53208;DHT22;39093;52.788;6.940;2023-10-31T07:44:32;10.20;99.90
53208;DHT22;39093;52.788;6.940;2023-10-31T07:47:00;10.20;99.90
53208;DHT22;39093;52.788;6.940;2023-10-31T07:49:27;10.20;99.90
53208;DHT22;39093;52.788;6.940;2023-10-31T07:51:54;10.30;99.90
53208;DHT22;39093;52.788;6.940;2023-10-31T07:54:21;10.20;99.90
53208;DHT22;39093;52.788;6.940;2023-10-31T07:56:48;10.30;99.90
53208;DHT22;39093;52.788;6.940;2023-10-31T07:59:15;10.30;99.90
53208;DHT22;39093;52.788;6.940;2023-10-31T08:01:42;10.30;99.90
53208;DHT22;39093;52.788;6.940;2023-10-31T08:04:09;10.40;99.90
53208;DHT22;39093;52.788;6.940;2023-10-31T08:06:37;10.40;99.90
53208;DHT22;39093;52.788;6.940;2023-10-31T08:09:03;10.40;99.90
53208;DHT22;39093;52.788;6.940;2023-10-31T08:11:34;10.50;99.90
53208;DHT22;39093;52.788;6.940;2023-10-31T08:14:02;10.50;99.90
53208;DHT22;39093;52.788;6.940;2023-10-31T08:16:29;10.60;99.90
53208;DHT22;39093;52.788;6.940;2023-10-31T08:18:56;10.70;99.90
53208;DHT22;39093;52.788;6.940;2023-10-31T08:21:23;10.70;99.90
53208;DHT22;39093;52.788;6.940;2023-10-31T08:23:50;10.70;99.90
53208;DHT22;39093;52.788;6.940;2023-10-31T08:26:17;10.80;99.90
53208;DHT22;39093;52.788;6.940;2023-10-31T08:28:44;10.80;99.90
53208;DHT22;39093;52.788;6.940;2023-10-31T08:31:11;10.80;99.90
53208;DHT22;39093;52.788;6.940;2023-10-31T08:33:38;10.80;99.90
53208;DHT22;39093;52.788;6.940;2023-10-31T08:36:05;10.80;99.90
53208;DHT22;39093;52.788;6.940;2023-10-31T08:38:33;10.90;99.90
53208;DHT22;39093;52.788;6.940;2023-10-31T08:41:00;10.90;99.90
53208;DHT22;39093;52.788;6.940;2023-10-31T08:43:27;10.90;99.90
53208;DHT22;39093;52.788;6.940;2023-10-31T08:45:54;11.00;99.90
53208;DHT22;39093;52.788;6.940;2023-10-31T08:48:21;11.00;99.90
53208;DHT22;39093;52.788;6.940;2023-10-31T08:50:48;11.00;99.90
53208;DHT22;39093;52.788;6.940;2023-10-31T08:53:15;11.10;99.90
53208;DHT22;39093;52.788;6.940;2023-10-31T08:55:42;11.20;99.90
53208;DHT22;39093;52.788;6.940;2023-10-31T08:58:12;11.30;99.90
53208;DHT22;39093;52.788;6.940;2023-10-31T09:00:40;11.40;99.90
53208;DHT22;39093;52.788;6.940;2023-10-31T09:03:08;11.50;99.90
53208;DHT22;39093;52.788;6.940;2023-10-31T09:05:35;11.50;99.90
53208;DHT22;39093;52.788;6.940;2023-10-31T09:08:03;11.40;99.90
53208;DHT22;39093;52.788;6.940;2023-10-31T09:10:30;11.40;99.90
53208;DHT22;39093;52.788;6.940;2023-10-31T09:12:56;11.50;99.90
53208;DHT22;39093;52.788;6.940;2023-10-31T09:15:23;11.50;99.90
53208;DHT22;39093;52.788;6.940;2023-10-31T09:17:50;11.50;99.90
53208;DHT22;39093;52.788;6.940;2023-10-31T09:20:17;11.50;99.90
53208;DHT22;39093;52.788;6.940;2023-10-31T09:22:45;11.60;99.90
53208;DHT22;39093;52.788;6.940;2023-10-31T09:25:11;11.70;99.90
53208;DHT22;39093;52.788;6.940;2023-10-31T09:27:41;11.60;99.90
53208;DHT22;39093;52.788;6.940;2023-10-31T09:30:09;11.60;99.90
53208;DHT22;39093;52.788;6.940;2023-10-31T09:32:36;11.70;99.90
53208;DHT22;39093;52.788;6.940;2023-10-31T09:35:03;11.70;99.90
53208;DHT22;39093;52.788;6.940;2023-10-31T09:37:31;11.80;99.90
53208;DHT22;39093;52.788;6.940;2023-10-31T09:39:58;11.80;99.90
53208;DHT22;39093;52.788;6.940;2023-10-31T09:42:25;11.80;99.90
53208;DHT22;39093;52.788;6.940;2023-10-31T09:44:52;11.80;99.90
53208;DHT22;39093;52.788;6.940;2023-10-31T09:47:20;12.00;99.90
53208;DHT22;39093;52.788;6.940;2023-10-31T09:49:47;12.00;99.90
53208;DHT22;39093;52.788;6.940;2023-10-31T09:52:15;12.10;99.90
53208;DHT22;39093;52.788;6.940;2023-10-31T09:54:42;12.10;99.90
53208;DHT22;39093;52.788;6.940;2023-10-31T09:57:14;12.10;99.90
53208;DHT22;39093;52.788;6.940;2023-10-31T09:59:41;12.30;99.90
53208;DHT22;39093;52.788;6.940;2023-10-31T10:02:07;12.30;99.90
53208;DHT22;39093;52.788;6.940;2023-10-31T10:04:36;12.30;99.90
53208;DHT22;39093;52.788;6.940;2023-10-31T10:07:04;12.10;99.90
53208;DHT22;39093;52.788;6.940;2023-10-31T10:09:31;12.00;99.90
53208;DHT22;39093;52.788;6.940;2023-10-31T10:12:00;12.00;99.90
53208;DHT22;39093;52.788;6.940;2023-10-31T10:14:28;11.90;99.90
53208;DHT22;39093;52.788;6.940;2023-10-31T10:16:55;11.90;99.90
53208;DHT22;39093;52.788;6.940;2023-10-31T10:19:22;11.90;99.90
53208;DHT22;39093;52.788;6.940;2023-10-31T10:21:55;11.90;99.90
53208;DHT22;39093;52.788;6.940;2023-10-31T10:24:23;11.80;99.90
53208;DHT22;39093;52.788;6.940;2023-10-31T10:26:51;11.80;99.90
53208;DHT22;39093;52.788;6.940;2023-10-31T10:29:19;11.80;99.90
53208;DHT22;39093;52.788;6.940;2023-10-31T10:31:46;11.80;99.90
53208;DHT22;39093;52.788;6.940;2023-10-31T10:34:15;11.70;99.90
53208;DHT22;39093;52.788;6.940;2023-10-31T10:36:48;11.80;99.90
53208;DHT22;39093;52.788;6.940;2023-10-31T10:39:22;11.70;99.90
53208;DHT22;39093;52.788;6.940;2023-10-31T10:41:55;11.70;99.90
53208;DHT22;39093;52.788;6.940;2023-10-31T10:44:34;11.70;99.90
53208;DHT22;39093;52.788;6.940;2023-10-31T10:47:04;11.60;99.90
53208;DHT22;39093;52.788;6.940;2023-10-31T10:49:36;11.60;99.90
53208;DHT22;39093;52.788;6.940;2023-10-31T10:54:53;11.50;99.90
53208;DHT22;39093;52.788;6.940;2023-10-31T10:57:42;11.50;99.90
53208;DHT22;39093;52.788;6.940;2023-10-31T11:00:11;11.50;99.90
53208;DHT22;39093;52.788;6.940;2023-10-31T11:02:40;11.60;99.90
53208;DHT22;39093;52.788;6.940;2023-10-31T11:05:10;11.50;99.90
53208;DHT22;39093;52.788;6.940;2023-10-31T11:07:39;11.50;99.90
53208;DHT22;39093;52.788;6.940;2023-10-31T11:10:08;11.40;99.90
53208;DHT22;39093;52.788;6.940;2023-10-31T11:12:36;11.40;99.90
53208;DHT22;39093;52.788;6.940;2023-10-31T11:15:04;11.40;99.90
53208;DHT22;39093;52.788;6.940;2023-10-31T11:17:52;11.30;99.90
53208;DHT22;39093;52.788;6.940;2023-10-31T11:20:21;11.30;99.90
53208;DHT22;39093;52.788;6.940;2023-10-31T11:22:55;11.30;99.90
53208;DHT22;39093;52.788;6.940;2023-10-31T11:25:24;11.30;99.90
53208;DHT22;39093;52.788;6.940;2023-10-31T11:28:15;11.40;99.90
53208;DHT22;39093;52.788;6.940;2023-10-31T11:30:43;11.40;99.90
53208;DHT22;39093;52.788;6.940;2023-10-31T11:33:14;11.50;99.90
53208;DHT22;39093;52.788;6.940;2023-10-31T11:35:42;11.60;99.90
53208;DHT22;39093;52.788;6.940;2023-10-31T11:38:11;11.60;99.90
53208;DHT22;39093;52.788;6.940;2023-10-31T11:43:15;11.60;99.90
53208;DHT22;39093;52.788;6.940;2023-10-31T11:45:44;11.60;99.90
53208;DHT22;39093;52.788;6.940;2023-10-31T11:48:15;11.70;99.90
53208;DHT22;39093;52.788;6.940;2023-10-31T11:50:42;11.70;99.90
53208;DHT22;39093;52.788;6.940;2023-10-31T11:53:11;11.70;99.90
53208;DHT22;39093;52.788;6.940;2023-10-31T11:55:41;11.70;99.90
53208;DHT22;39093;52.788;6.940;2023-10-31T11:58:26;11.70;99.90
53208;DHT22;39093;52.788;6.940;2023-10-31T12:01:01;11.80;99.90
53208;DHT22;39093;52.788;6.940;2023-10-31T12:03:37;11.80;99.90
53208;DHT22;39093;52.788;6.940;2023-10-31T12:06:06;11.80;99.90
53208;DHT22;39093;52.788;6.940;2023-10-31T12:08:35;11.80;99.90
53208;DHT22;39093;52.788;6.940;2023-10-31T12:11:17;11.80;99.90
53208;DHT22;39093;52.788;6.940;2023-10-31T12:13:59;11.80;99.90
53208;DHT22;39093;52.788;6.940;2023-10-31T12:16:29;11.80;99.90
53208;DHT22;39093;52.788;6.940;2023-10-31T12:18:58;11.90;99.90
53208;DHT22;39093;52.788;6.940;2023-10-31T12:21:39;11.80;99.90
53208;DHT22;39093;52.788;6.940;2023-10-31T12:24:09;11.70;99.90
53208;DHT22;39093;52.788;6.940;2023-10-31T12:26:36;11.70;99.90
53208;DHT22;39093;52.788;6.940;2023-10-31T12:29:11;11.70;99.90
53208;DHT22;39093;52.788;6.940;2023-10-31T12:31:40;11.70;99.90
53208;DHT22;39093;52.788;6.940;2023-10-31T12:34:09;11.70;99.90
53208;DHT22;39093;52.788;6.940;2023-10-31T12:36:36;11.70;99.90
53208;DHT22;39093;52.788;6.940;2023-10-31T12:39:05;11.70;99.90
53208;DHT22;39093;52.788;6.940;2023-10-31T12:41:34;11.70;99.90
53208;DHT22;39093;52.788;6.940;2023-10-31T12:44:02;11.70;99.90
53208;DHT22;39093;52.788;6.940;2023-10-31T12:46:30;11.80;99.90
53208;DHT22;39093;52.788;6.940;2023-10-31T12:48:58;11.70;99.90
53208;DHT22;39093;52.788;6.940;2023-10-31T12:51:25;11.70;99.90
53208;DHT22;39093;52.788;6.940;2023-10-31T12:53:53;11.70;99.90
53208;DHT22;39093;52.788;6.940;2023-10-31T12:56:40;11.50;99.90
53208;DHT22;39093;52.788;6.940;2023-10-31T12:59:09;11.50;99.90
53208;DHT22;39093;52.788;6.940;2023-10-31T13:01:36;11.50;99.90
53208;DHT22;39093;52.788;6.940;2023-10-31T13:04:09;11.50;99.90
53208;DHT22;39093;52.788;6.940;2023-10-31T13:06:36;11.50;99.90
53208;DHT22;39093;52.788;6.940;2023-10-31T13:09:03;11.60;99.90
53208;DHT22;39093;52.788;6.940;2023-10-31T13:11:40;11.60;99.90
53208;DHT22;39093;52.788;6.940;2023-10-31T13:14:07;11.60;99.90
53208;DHT22;39093;52.788;6.940;2023-10-31T13:16:34;11.50;99.90
53208;DHT22;39093;52.788;6.940;2023-10-31T13:19:01;11.60;99.90
53208;DHT22;39093;52.788;6.940;2023-10-31T13:21:28;11.50;99.90
53208;DHT22;39093;52.788;6.940;2023-10-31T13:23:55;11.60;99.90
53208;DHT22;39093;52.788;6.940;2023-10-31T13:26:22;11.60;99.90
53208;DHT22;39093;52.788;6.940;2023-10-31T13:28:49;11.60;99.90
53208;DHT22;39093;52.788;6.940;2023-10-31T13:31:16;11.70;99.90
53208;DHT22;39093;52.788;6.940;2023-10-31T13:33:44;11.80;99.90
53208;DHT22;39093;52.788;6.940;2023-10-31T13:36:12;11.80;99.90
53208;DHT22;39093;52.788;6.940;2023-10-31T13:38:39;11.90;99.90
53208;DHT22;39093;52.788;6.940;2023-10-31T13:41:06;11.90;99.90
53208;DHT22;39093;52.788;6.940;2023-10-31T13:43:33;11.90;99.90
53208;DHT22;39093;52.788;6.940;2023-10-31T13:46:00;11.80;99.90
53208;DHT22;39093;52.788;6.940;2023-10-31T13:48:28;11.90;99.90
53208;DHT22;39093;52.788;6.940;2023-10-31T13:50:55;11.90;99.90
53208;DHT22;39093;52.788;6.940;2023-10-31T13:53:22;11.70;99.90
53208;DHT22;39093;52.788;6.940;2023-10-31T13:55:49;11.70;99.90
53208;DHT22;39093;52.788;6.940;2023-10-31T13:58:15;11.80;99.90
53208;DHT22;39093;52.788;6.940;2023-10-31T14:00:43;11.70;99.90
53208;DHT22;39093;52.788;6.940;2023-10-31T14:03:12;11.70;99.90
53208;DHT22;39093;52.788;6.940;2023-10-31T14:05:39;11.70;99.90
53208;DHT22;39093;52.788;6.940;2023-10-31T14:08:07;11.70;99.90
53208;DHT22;39093;52.788;6.940;2023-10-31T14:10:34;11.60;99.90
53208;DHT22;39093;52.788;6.940;2023-10-31T14:13:01;11.50;99.90
53208;DHT22;39093;52.788;6.940;2023-10-31T14:15:28;11.60;99.90
53208;DHT22;39093;52.788;6.940;2023-10-31T14:17:55;11.80;99.90
53208;DHT22;39093;52.788;6.940;2023-10-31T14:20:21;11.80;99.90
53208;DHT22;39093;52.788;6.940;2023-10-31T14:22:49;11.90;99.90
53208;DHT22;39093;52.788;6.940;2023-10-31T14:25:17;12.10;99.90
53208;DHT22;39093;52.788;6.940;2023-10-31T14:27:44;11.90;99.90
53208;DHT22;39093;52.788;6.940;2023-10-31T14:30:12;11.80;99.90
53208;DHT22;39093;52.788;6.940;2023-10-31T14:32:41;11.70;99.90
53208;DHT22;39093;52.788;6.940;2023-10-31T14:35:08;11.70;99.90
53208;DHT22;39093;52.788;6.940;2023-10-31T14:37:35;11.60;99.90
53208;DHT22;39093;52.788;6.940;2023-10-31T14:40:02;11.60;99.90
53208;DHT22;39093;52.788;6.940;2023-10-31T14:42:30;11.50;99.90
53208;DHT22;39093;52.788;6.940;2023-10-31T14:44:57;11.50;99.90
53208;DHT22;39093;52.788;6.940;2023-10-31T14:47:24;11.40;99.90
53208;DHT22;39093;52.788;6.940;2023-10-31T14:49:51;11.40;99.90
53208;DHT22;39093;52.788;6.940;2023-10-31T14:52:18;11.30;99.90
53208;DHT22;39093;52.788;6.940;2023-10-31T14:54:45;11.20;99.90
53208;DHT22;39093;52.788;6.940;2023-10-31T14:57:12;11.20;99.90
53208;DHT22;39093;52.788;6.940;2023-10-31T14:59:40;11.20;99.90
53208;DHT22;39093;52.788;6.940;2023-10-31T15:02:07;11.20;99.90
53208;DHT22;39093;52.788;6.940;2023-10-31T15:04:36;11.20;99.90
53208;DHT22;39093;52.788;6.940;2023-10-31T15:07:03;11.20;99.90
53208;DHT22;39093;52.788;6.940;2023-10-31T15:09:30;11.20;99.90
53208;DHT22;39093;52.788;6.940;2023-10-31T15:11:57;11.20;99.90
53208;DHT22;39093;52.788;6.940;2023-10-31T15:14:24;11.20;99.90
53208;DHT22;39093;52.788;6.940;2023-10-31T15:16:51;11.20;99.90
53208;DHT22;39093;52.788;6.940;2023-10-31T15:19:18;11.20;99.90
53208;DHT22;39093;52.788;6.940;2023-10-31T15:21:45;11.20;99.90
53208;DHT22;39093;52.788;6.940;2023-10-31T15:24:12;11.20;99.90
53208;DHT22;39093;52.788;6.940;2023-10-31T15:26:39;11.30;99.90
53208;DHT22;39093;52.788;6.940;2023-10-31T15:29:07;11.20;99.90
53208;DHT22;39093;52.788;6.940;2023-10-31T15:31:34;11.20;99.90
53208;DHT22;39093;52.788;6.940;2023-10-31T15:34:03;11.10;99.90
53208;DHT22;39093;52.788;6.940;2023-10-31T15:36:30;11.20;99.90
53208;DHT22;39093;52.788;6.940;2023-10-31T15:38:57;11.10;99.90
53208;DHT22;39093;52.788;6.940;2023-10-31T15:41:24;11.10;99.90